Time;durP1;ratioP1;P1;durP2;ratioP2;P2;SDS_P1;SDS_P2;PMS_P1;PMS_P2;Temp;Humidity;BMP_temperature;BMP_pressure;BME280_temperature;BME280_humidity;BME280_pressure;Samples;Min_cycle;Max_cycle;Signal;HPM_P1;HPM_P2
2022/05/27 00:00:41;;;;;;;4.20;1.60;;;16.10;99.90;;;;;;5053662;28;20257;-57
2022/05/27 00:03:07;;;;;;;3.33;1.70;;;15.90;99.90;;;;;;5052995;28;20190;-57
2022/05/27 00:05:32;;;;;;;5.80;1.70;;;15.80;99.90;;;;;;5053368;28;20730;-56
2022/05/27 00:07:58;;;;;;;6.13;1.80;;;15.70;99.90;;;;;;5053884;28;20190;-56
2022/05/27 00:10:24;;;;;;;3.53;1.43;;;15.60;99.90;;;;;;5053263;28;20178;-68
2022/05/27 00:12:49;;;;;;;5.20;1.60;;;15.50;99.90;;;;;;5053505;28;20578;-57
2022/05/27 00:15:15;;;;;;;2.37;1.30;;;15.40;99.90;;;;;;5053596;28;20182;-58
2022/05/27 00:17:41;;;;;;;10.90;1.90;;;15.30;99.90;;;;;;5053378;28;20190;-57
2022/05/27 00:20:08;;;;;;;2.93;1.73;;;15.30;99.90;;;;;;5053704;28;20180;-57
2022/05/27 00:22:34;;;;;;;3.37;1.67;;;15.30;99.90;;;;;;5053148;28;20211;-61
2022/05/27 00:25:00;;;;;;;3.53;1.70;;;15.30;99.90;;;;;;5053321;28;20197;-58
2022/05/27 00:27:25;;;;;;;2.50;1.40;;;15.20;99.90;;;;;;5052897;28;20224;-59
2022/05/27 00:29:51;;;;;;;4.53;1.90;;;15.30;99.90;;;;;;5053272;28;20201;-57
2022/05/27 00:32:17;;;;;;;6.27;1.63;;;15.20;99.90;;;;;;5053440;28;20179;-56
2022/05/27 00:34:43;;;;;;;4.37;1.73;;;15.30;99.90;;;;;;5052745;28;20200;-57
2022/05/27 00:37:09;;;;;;;5.60;1.30;;;15.30;99.90;;;;;;5053150;28;20201;-57
2022/05/27 00:39:38;;;;;;;2.70;1.47;;;15.40;99.90;;;;;;5052554;28;20190;-61
2022/05/27 00:42:05;;;;;;;6.77;1.80;;;15.50;99.90;;;;;;5052995;28;20196;-58
2022/05/27 00:44:30;;;;;;;7.70;1.83;;;15.60;99.90;;;;;;5051418;28;20636;-58
2022/05/27 00:47:04;;;;;;;4.17;1.20;;;15.60;99.90;;;;;;5053008;28;20259;-58
2022/05/27 00:49:32;;;;;;;3.33;1.50;;;15.70;99.90;;;;;;5052673;28;20537;-61
2022/05/27 00:52:03;;;;;;;2.77;1.47;;;15.80;99.90;;;;;;5052978;28;20265;-58
2022/05/27 00:54:30;;;;;;;3.33;1.43;;;15.80;99.90;;;;;;5052620;28;20196;-58
2022/05/27 00:57:06;;;;;;;7.23;1.60;;;15.80;99.90;;;;;;5052866;28;20240;-58
2022/05/27 01:00:03;;;;;;;4.73;1.20;;;15.90;99.90;;;;;;5052580;28;20220;-58
2022/05/27 01:02:29;;;;;;;1.83;1.13;;;16.10;99.90;;;;;;5052619;28;20217;-58
2022/05/27 01:04:55;;;;;;;2.03;1.13;;;16.20;99.90;;;;;;5051293;28;20655;-57
2022/05/27 01:07:20;;;;;;;5.30;1.47;;;16.20;99.90;;;;;;5052737;28;20221;-62
2022/05/27 01:09:48;;;;;;;2.10;1.70;;;16.30;99.70;;;;;;5052242;28;20642;-57
2022/05/27 01:12:32;;;;;;;7.10;2.70;;;16.30;99.50;;;;;;5052530;28;20186;-57
2022/05/27 01:15:18;;;;;;;4.17;2.77;;;16.20;99.50;;;;;;5052237;28;20612;-56
2022/05/27 01:18:08;;;;;;;3.57;2.40;;;16.20;99.60;;;;;;5052183;28;20193;-57
2022/05/27 01:21:04;;;;;;;3.70;2.50;;;16.10;99.90;;;;;;5051991;28;20565;-56
2022/05/27 01:23:57;;;;;;;5.50;2.10;;;16.00;99.90;;;;;;5051737;28;20228;-57
2022/05/27 01:26:40;;;;;;;4.47;2.20;;;15.90;99.90;;;;;;5052073;28;20206;-57
2022/05/27 01:29:37;;;;;;;4.67;2.20;;;15.90;99.90;;;;;;5052648;28;20162;-57
2022/05/27 01:32:17;;;;;;;4.43;1.70;;;15.90;99.90;;;;;;5052103;28;20257;-57
2022/05/27 01:35:00;;;;;;;3.43;1.57;;;15.80;99.90;;;;;;5052119;28;20673;-58
2022/05/27 01:37:46;;;;;;;5.40;1.30;;;15.70;99.90;;;;;;5052147;28;20622;-57
2022/05/27 01:40:32;;;;;;;5.27;1.50;;;15.60;99.90;;;;;;5044447;28;20330;-58
2022/05/27 01:43:21;;;;;;;17.57;2.83;;;15.50;99.90;;;;;;5052044;28;20185;-57
2022/05/27 01:46:12;;;;;;;3.43;0.90;;;15.50;99.90;;;;;;5050447;28;20220;-61
2022/05/27 01:48:49;;;;;;;4.80;1.67;;;15.50;99.90;;;;;;5051751;28;20176;-58
2022/05/27 01:51:44;;;;;;;4.17;1.63;;;15.50;99.90;;;;;;5052082;28;20281;-57
2022/05/27 01:54:20;;;;;;;5.67;1.57;;;15.50;99.90;;;;;;5052232;28;20255;-57
2022/05/27 01:56:54;;;;;;;6.20;1.60;;;15.50;99.90;;;;;;5051620;28;20177;-58
2022/05/27 02:00:02;;;;;;;4.07;1.33;;;15.60;99.90;;;;;;5051795;28;20512;-57
2022/05/27 02:02:30;;;;;;;5.17;1.83;;;15.60;99.90;;;;;;5037475;28;20597;-59
2022/05/27 02:05:17;;;;;;;11.03;2.70;;;15.60;99.90;;;;;;5048237;28;20180;-57
2022/05/27 02:07:55;;;;;;;12.63;3.33;;;15.60;99.90;;;;;;5040270;28;20209;-57
2022/05/27 02:10:32;;;;;;;9.10;3.20;;;15.50;99.90;;;;;;5032065;28;20169;-57
2022/05/27 02:13:21;;;;;;;11.20;2.20;;;15.50;99.90;;;;;;5031775;28;20190;-57
2022/05/27 02:15:49;;;;;;;4.50;1.60;;;15.40;99.90;;;;;;5029241;28;20234;-57
2022/05/27 02:18:19;;;;;;;5.27;1.90;;;15.40;99.90;;;;;;5032074;28;20184;-56
2022/05/27 02:20:53;;;;;;;4.37;1.30;;;15.40;99.90;;;;;;5031324;28;20253;-57
2022/05/27 02:23:41;;;;;;;7.53;2.77;;;15.40;99.90;;;;;;5031688;28;20233;-61
2022/05/27 02:26:19;;;;;;;5.67;1.50;;;15.40;99.90;;;;;;5032487;28;20251;-58
2022/05/27 02:29:08;;;;;;;4.37;1.57;;;15.50;99.90;;;;;;5034114;28;20281;-58
2022/05/27 02:31:37;;;;;;;6.53;2.13;;;15.60;99.90;;;;;;5035304;28;20201;-58
2022/05/27 02:37:13;;;;;;;7.47;2.50;;;15.60;99.90;;;;;;5034986;28;20173;-58
2022/05/27 02:39:39;;;;;;;7.70;2.33;;;15.60;99.90;;;;;;5035680;28;20167;-58
2022/05/27 02:42:19;;;;;;;9.33;2.33;;;15.50;99.90;;;;;;5044997;28;20526;-59
2022/05/27 02:45:05;;;;;;;4.83;2.00;;;15.50;99.90;;;;;;5055191;28;20254;-59
2022/05/27 02:47:40;;;;;;;6.70;2.00;;;15.50;99.90;;;;;;5047552;28;20619;-58
2022/05/27 02:50:19;;;;;;;11.40;3.00;;;15.50;99.90;;;;;;5053966;28;20664;-58
2022/05/27 02:52:58;;;;;;;6.67;2.60;;;15.60;99.90;;;;;;5054642;28;20166;-63
2022/05/27 02:55:38;;;;;;;5.07;1.80;;;15.60;99.90;;;;;;5055012;28;20166;-57
2022/05/27 02:58:04;;;;;;;8.03;1.67;;;15.70;99.90;;;;;;5055210;28;20174;-58
2022/05/27 03:00:36;;;;;;;12.07;2.00;;;15.70;99.90;;;;;;5053367;28;20183;-57
2022/05/27 03:03:02;;;;;;;6.53;2.07;;;15.70;99.90;;;;;;5050607;28;20686;-57
2022/05/27 03:05:41;;;;;;;2.90;2.10;;;15.80;99.90;;;;;;5054611;28;20731;-57
2022/05/27 03:08:25;;;;;;;7.03;1.93;;;15.80;99.90;;;;;;5034922;28;20193;-57
2022/05/27 03:11:13;;;;;;;6.23;2.37;;;15.70;99.90;;;;;;5043010;28;20174;-61
2022/05/27 03:14:00;;;;;;;5.00;1.60;;;15.80;99.90;;;;;;5054437;28;20175;-57
2022/05/27 03:16:58;;;;;;;12.80;2.57;;;15.80;99.90;;;;;;5054609;28;20169;-57
2022/05/27 03:19:41;;;;;;;4.00;1.67;;;15.90;99.90;;;;;;5030605;28;20195;-57
2022/05/27 03:22:24;;;;;;;5.80;1.67;;;16.10;99.90;;;;;;5054575;28;20166;-58
2022/05/27 03:25:07;;;;;;;3.33;1.70;;;16.20;99.90;;;;;;5054313;28;20180;-57
2022/05/27 03:27:42;;;;;;;14.27;3.33;;;16.30;99.90;;;;;;5054231;28;20282;-58
2022/05/27 03:30:19;;;;;;;8.43;2.60;;;16.40;99.90;;;;;;5054553;28;20166;-58
2022/05/27 03:33:18;;;;;;;9.53;2.67;;;16.40;99.90;;;;;;5053724;28;20526;-58
2022/05/27 03:35:53;;;;;;;14.23;3.10;;;16.20;99.90;;;;;;5054361;28;20182;-58
2022/05/27 03:38:28;;;;;;;9.87;2.20;;;16.10;99.90;;;;;;5052692;28;20166;-58
2022/05/27 03:41:01;;;;;;;7.67;1.73;;;16.00;99.90;;;;;;5053661;28;20185;-58
2022/05/27 03:43:29;;;;;;;7.70;2.90;;;16.00;99.90;;;;;;5053814;28;20189;-58
2022/05/27 03:46:00;;;;;;;9.13;2.77;;;16.10;99.90;;;;;;5053553;28;20206;-56
2022/05/27 03:48:28;;;;;;;19.87;5.53;;;16.20;99.90;;;;;;5053801;28;20261;-57
2022/05/27 03:50:59;;;;;;;3.97;2.27;;;16.40;99.90;;;;;;5053914;28;20177;-57
2022/05/27 03:54:03;;;;;;;13.73;2.70;;;16.60;99.90;;;;;;5053354;28;20158;-58
2022/05/27 03:56:11;;;;;;;10.37;3.33;;;16.60;99.90;;;;;;5053339;28;20276;-58
2022/05/27 03:58:37;;;;;;;9.43;2.90;;;16.70;99.90;;;;;;5053255;28;20252;-61
2022/05/27 04:01:03;;;;;;;11.03;2.13;;;16.80;99.90;;;;;;5053781;28;20174;-58
2022/05/27 04:03:29;;;;;;;8.10;2.50;;;16.80;99.90;;;;;;5053560;28;20186;-58
2022/05/27 04:05:54;;;;;;;11.40;3.20;;;16.80;99.90;;;;;;5053121;28;20280;-58
2022/05/27 04:08:20;;;;;;;8.63;2.07;;;16.80;99.90;;;;;;5053617;28;20193;-59
2022/05/27 04:10:45;;;;;;;8.47;3.30;;;16.80;99.90;;;;;;5052020;28;20209;-58
2022/05/27 04:13:11;;;;;;;14.87;3.13;;;16.80;99.90;;;;;;5053523;28;20178;-57
2022/05/27 04:15:37;;;;;;;11.67;4.50;;;16.90;99.90;;;;;;5052560;28;20517;-66
2022/05/27 04:18:03;;;;;;;14.23;3.60;;;17.00;99.90;;;;;;5053090;28;20185;-61
2022/05/27 04:20:28;;;;;;;10.30;2.63;;;17.00;99.90;;;;;;5053308;28;20478;-59
2022/05/27 04:22:55;;;;;;;8.00;2.10;;;17.10;99.90;;;;;;5052410;28;20263;-57
2022/05/27 04:25:21;;;;;;;8.90;3.07;;;17.20;99.90;;;;;;5052980;28;20167;-59
2022/05/27 04:27:46;;;;;;;11.70;3.00;;;17.40;99.90;;;;;;5050655;28;20501;-59
2022/05/27 04:30:14;;;;;;;13.93;2.77;;;17.50;99.90;;;;;;5052848;28;20220;-56
2022/05/27 04:32:40;;;;;;;11.03;3.30;;;17.60;99.90;;;;;;5052191;28;20186;-58
2022/05/27 04:35:07;;;;;;;14.20;3.30;;;17.80;99.90;;;;;;5052304;28;20182;-59
2022/05/27 04:37:33;;;;;;;19.10;4.03;;;17.90;99.90;;;;;;5052152;28;20182;-57
2022/05/27 04:39:59;;;;;;;16.67;3.53;;;18.10;99.90;;;;;;5052262;28;20587;-58
2022/05/27 04:42:25;;;;;;;3.57;2.40;;;18.30;99.90;;;;;;5051069;28;20178;-59
2022/05/27 04:44:52;;;;;;;10.70;3.40;;;18.50;99.90;;;;;;5051927;28;20178;-58
2022/05/27 04:47:17;;;;;;;9.17;1.80;;;18.50;99.90;;;;;;5050967;28;20210;-59
2022/05/27 04:49:53;;;;;;;5.73;2.50;;;18.70;99.30;;;;;;5050600;28;20193;-59
2022/05/27 04:52:29;;;;;;;8.97;2.80;;;18.90;97.50;;;;;;5051894;28;20553;-65
2022/05/27 04:54:57;;;;;;;5.75;1.90;;;19.10;96.10;;;;;;5050808;28;20182;-59
2022/05/27 04:57:25;;;;;;;6.18;1.98;;;19.10;95.40;;;;;;5051903;28;20571;-59
2022/05/27 04:59:51;;;;;;;4.95;2.40;;;19.00;94.30;;;;;;5051451;28;20210;-59
2022/05/27 05:02:22;;;;;;;7.55;2.92;;;19.20;94.20;;;;;;5050432;28;20584;-59
2022/05/27 05:04:51;;;;;;;5.97;1.77;;;19.20;94.00;;;;;;5050996;28;20197;-55
2022/05/27 05:07:21;;;;;;;8.13;2.10;;;19.30;93.30;;;;;;5051313;28;20591;-58
2022/05/27 05:09:47;;;;;;;3.60;1.50;;;19.60;93.60;;;;;;5051109;28;20186;-59
2022/05/27 05:12:13;;;;;;;16.40;2.08;;;19.80;92.00;;;;;;5050306;28;20265;-57
2022/05/27 05:14:40;;;;;;;9.60;2.95;;;19.80;92.40;;;;;;5051370;28;20186;-65
2022/05/27 05:17:07;;;;;;;7.72;2.67;;;19.70;92.70;;;;;;5051332;28;20193;-59
2022/05/27 05:19:33;;;;;;;10.32;3.75;;;19.60;92.90;;;;;;5050548;28;20627;-57
2022/05/27 05:21:59;;;;;;;11.73;2.58;;;19.80;93.40;;;;;;5051127;28;20231;-56
2022/05/27 05:24:24;;;;;;;22.80;3.60;;;19.90;95.00;;;;;;5051388;28;20661;-57
2022/05/27 05:26:50;;;;;;;7.13;2.30;;;19.90;97.00;;;;;;5049310;28;20253;-60
2022/05/27 05:29:17;;;;;;;16.02;4.60;;;19.70;97.70;;;;;;5046047;28;20212;-60
2022/05/27 05:31:43;;;;;;;8.52;3.17;;;19.90;98.40;;;;;;5036963;28;20182;-58
2022/05/27 05:34:09;;;;;;;7.55;2.53;;;19.90;97.40;;;;;;5041273;28;20234;-62
2022/05/27 05:36:34;;;;;;;6.45;2.50;;;20.00;97.90;;;;;;5057121;28;20197;-60
2022/05/27 05:39:02;;;;;;;18.30;3.08;;;20.20;97.50;;;;;;5059768;28;20252;-63
2022/05/27 05:41:33;;;;;;;12.63;3.17;;;20.10;97.90;;;;;;5048186;28;20276;-62
2022/05/27 05:44:00;;;;;;;20.50;3.63;;;20.20;97.40;;;;;;5057499;28;20202;-60
2022/05/27 05:46:26;;;;;;;9.80;2.13;;;20.40;97.10;;;;;;5052327;28;20226;-58
2022/05/27 05:48:53;;;;;;;12.15;2.70;;;20.20;95.50;;;;;;5050502;28;20218;-59
2022/05/27 05:51:19;;;;;;;8.63;2.33;;;20.30;95.90;;;;;;5070713;28;20185;-61
2022/05/27 05:53:45;;;;;;;5.63;2.20;;;20.50;94.20;;;;;;5055118;28;20275;-66
2022/05/27 05:56:11;;;;;;;10.65;2.20;;;20.60;93.40;;;;;;5058979;28;20601;-62
2022/05/27 05:58:37;;;;;;;19.27;3.28;;;20.60;93.20;;;;;;5055182;28;20190;-64
2022/05/27 06:01:03;;;;;;;5.47;2.13;;;20.50;94.10;;;;;;5057248;28;20186;-61
2022/05/27 06:03:29;;;;;;;13.55;3.17;;;20.30;92.50;;;;;;5070085;28;20572;-63
2022/05/27 06:05:55;;;;;;;8.27;2.40;;;20.20;92.80;;;;;;5055671;28;20203;-59
2022/05/27 06:08:20;;;;;;;10.25;3.60;;;20.00;93.00;;;;;;5060048;28;20193;-62
2022/05/27 06:10:47;;;;;;;6.10;2.20;;;20.10;92.80;;;;;;5060342;28;20190;-58
2022/05/27 06:13:14;;;;;;;10.35;2.50;;;20.20;92.10;;;;;;5050435;28;20182;-58
2022/05/27 06:15:39;;;;;;;8.85;2.63;;;20.30;92.10;;;;;;5060201;28;20194;-60
2022/05/27 06:18:06;;;;;;;13.35;3.13;;;20.40;91.60;;;;;;5057165;28;20208;-60
2022/05/27 06:20:35;;;;;;;12.32;2.95;;;20.30;91.80;;;;;;5070009;28;20245;-62
2022/05/27 06:23:06;;;;;;;3.45;2.22;;;20.40;92.50;;;;;;5069815;28;20378;-62
2022/05/27 06:25:33;;;;;;;11.30;3.25;;;20.30;92.20;;;;;;5059030;28;20202;-61
2022/05/27 06:36:13;;;;;;;3.35;1.55;;;20.20;91.40;;;;;;5069719;28;20559;-65
2022/05/27 06:38:39;;;;;;;7.22;1.73;;;20.30;91.80;;;;;;5056957;28;20213;-61
2022/05/27 06:41:04;;;;;;;6.07;1.40;;;20.30;91.50;;;;;;5040410;28;20231;-59
2022/05/27 06:43:31;;;;;;;9.73;1.88;;;20.30;90.50;;;;;;5060410;28;20243;-60
2022/05/27 06:46:00;;;;;;;9.20;1.92;;;20.40;90.30;;;;;;5067840;28;20630;-64
2022/05/27 06:48:27;;;;;;;9.70;2.00;;;20.30;89.50;;;;;;5046499;28;20210;-63
2022/05/27 06:50:53;;;;;;;7.20;1.38;;;20.40;88.80;;;;;;5060979;28;20220;-59
2022/05/27 06:53:19;;;;;;;2.95;1.23;;;20.40;90.60;;;;;;5050102;28;20206;-59
2022/05/27 06:55:48;;;;;;;4.82;1.60;;;20.30;90.50;;;;;;5063684;28;20205;-62
2022/05/27 06:58:15;;;;;;;9.50;3.97;;;20.40;90.20;;;;;;5057589;28;20185;-63
2022/05/27 07:00:41;;;;;;;4.22;1.48;;;20.50;90.10;;;;;;5050368;28;20202;-60
2022/05/27 07:03:07;;;;;;;2.40;1.20;;;20.60;88.60;;;;;;5050063;28;20188;-59
2022/05/27 07:05:34;;;;;;;3.15;1.38;;;20.60;85.90;;;;;;5041988;28;20273;-59
2022/05/27 07:08:02;;;;;;;4.78;1.55;;;20.50;86.20;;;;;;5029903;28;20274;-63
2022/05/27 07:10:28;;;;;;;4.25;2.08;;;20.60;86.10;;;;;;5037379;28;20269;-61
2022/05/27 07:12:58;;;;;;;5.60;1.50;;;20.70;86.00;;;;;;5051820;28;20578;-64
2022/05/27 07:15:27;;;;;;;6.95;2.22;;;20.80;86.80;;;;;;5053369;28;20672;-61
2022/05/27 07:17:53;;;;;;;9.25;2.20;;;20.90;87.50;;;;;;5052247;28;20634;-62
2022/05/27 07:20:19;;;;;;;9.88;2.10;;;21.10;88.00;;;;;;5053178;28;20209;-62
2022/05/27 07:22:45;;;;;;;10.70;1.73;;;21.20;87.50;;;;;;5052452;28;20268;-63
2022/05/27 07:25:13;;;;;;;5.93;1.77;;;21.00;86.20;;;;;;5053111;28;20182;-60
2022/05/27 07:27:40;;;;;;;5.10;1.45;;;21.10;86.50;;;;;;5052679;28;20217;-62
2022/05/27 07:30:07;;;;;;;6.22;1.80;;;21.10;87.10;;;;;;5053268;28;20197;-58
2022/05/27 07:32:34;;;;;;;22.42;4.18;;;21.20;85.20;;;;;;5053973;28;20192;-59
2022/05/27 07:35:00;;;;;;;5.15;1.75;;;21.30;84.80;;;;;;5053123;28;20274;-61
2022/05/27 07:37:26;;;;;;;3.60;1.20;;;21.40;85.00;;;;;;5053092;28;20186;-61
2022/05/27 07:39:52;;;;;;;16.20;2.38;;;21.30;83.50;;;;;;5053313;28;20623;-60
2022/05/27 07:42:18;;;;;;;5.82;2.15;;;21.40;86.50;;;;;;5053213;28;20761;-61
2022/05/27 07:44:43;;;;;;;5.40;1.40;;;21.60;85.60;;;;;;5053250;28;20650;-62
2022/05/27 07:47:09;;;;;;;5.78;1.42;;;21.60;84.20;;;;;;5052591;28;20523;-58
2022/05/27 07:49:35;;;;;;;5.22;1.35;;;21.60;83.60;;;;;;5051554;28;20661;-58
2022/05/27 07:52:02;;;;;;;9.18;1.83;;;21.70;83.20;;;;;;5052410;28;20206;-58
2022/05/27 07:54:28;;;;;;;13.27;5.65;;;21.80;83.30;;;;;;5052513;28;20185;-61
2022/05/27 07:56:54;;;;;;;9.35;2.13;;;21.90;81.80;;;;;;5052247;28;20186;-58
2022/05/27 07:59:20;;;;;;;7.72;1.75;;;22.10;81.90;;;;;;5052717;28;20365;-58
2022/05/27 08:01:46;;;;;;;9.77;2.45;;;22.20;81.20;;;;;;5051803;28;20182;-70
2022/05/27 08:04:12;;;;;;;9.15;1.52;;;22.30;80.10;;;;;;5049943;28;20191;-58
2022/05/27 08:06:38;;;;;;;6.93;1.77;;;22.30;79.50;;;;;;5052218;28;20305;-60
2022/05/27 08:09:04;;;;;;;5.63;1.52;;;22.50;80.00;;;;;;5052245;28;20264;-62
2022/05/27 08:11:30;;;;;;;5.03;1.50;;;22.70;78.90;;;;;;5050509;28;20622;-60
2022/05/27 08:13:55;;;;;;;3.00;1.02;;;23.00;76.30;;;;;;5050898;28;20252;-60
2022/05/27 08:16:22;;;;;;;4.25;1.02;;;22.90;71.20;;;;;;5050523;28;20226;-62
2022/05/27 08:18:48;;;;;;;2.47;0.95;;;22.80;70.60;;;;;;5052114;28;20622;-60
2022/05/27 08:21:14;;;;;;;6.78;1.23;;;22.80;68.10;;;;;;5051910;28;20257;-62
2022/05/27 08:23:40;;;;;;;2.75;1.00;;;23.00;67.50;;;;;;5050754;28;20268;-62
2022/05/27 08:26:06;;;;;;;2.35;0.85;;;23.10;67.20;;;;;;5050358;28;20315;-61
2022/05/27 08:28:31;;;;;;;6.97;1.40;;;23.50;66.00;;;;;;5052019;28;20344;-59
2022/05/27 08:30:59;;;;;;;1.13;0.70;;;23.80;64.10;;;;;;5050181;28;20217;-61
2022/05/27 08:38:00;;;;;;;2.65;1.05;;;23.70;64.20;;;;;;5051209;28;20221;-61
2022/05/27 08:38:56;;;;;;;7.07;2.15;;;23.90;61.90;;;;;;5051837;28;20273;-59
2022/05/27 08:41:51;;;;;;;6.28;2.40;;;23.90;61.80;;;;;;5052004;28;20186;-59
2022/05/27 08:44:34;;;;;;;5.88;1.33;;;23.80;61.50;;;;;;5051863;28;20592;-57
2022/05/27 08:47:04;;;;;;;5.07;1.10;;;24.00;61.60;;;;;;5049160;28;20284;-62
2022/05/27 08:49:35;;;;;;;5.47;1.38;;;24.00;60.30;;;;;;5051223;28;20615;-61
2022/05/27 08:52:31;;;;;;;6.68;1.15;;;23.80;61.20;;;;;;5051404;28;20162;-60
2022/05/27 08:55:01;;;;;;;4.13;2.13;;;23.80;60.90;;;;;;5051435;28;20166;-63
2022/05/27 09:00:26;;;;;;;8.82;1.33;;;24.20;60.80;;;;;;5050349;28;20193;-60
2022/05/27 09:02:58;;;;;;;3.53;1.17;;;24.00;60.70;;;;;;5050868;28;20174;-59
2022/05/27 09:05:42;;;;;;;4.57;1.50;;;23.70;61.20;;;;;;5051478;28;20303;-61
2022/05/27 09:08:20;;;;;;;3.88;1.02;;;23.70;61.50;;;;;;5049516;28;20186;-63
2022/05/27 09:10:53;;;;;;;4.70;1.48;;;23.70;60.70;;;;;;5051154;28;20312;-63
2022/05/27 09:13:22;;;;;;;4.90;1.23;;;23.80;60.60;;;;;;5051214;28;20622;-62
2022/05/27 09:15:56;;;;;;;5.53;1.50;;;23.90;60.90;;;;;;5049954;28;20534;-63
2022/05/27 09:18:36;;;;;;;6.68;1.17;;;23.80;60.70;;;;;;5051227;28;20192;-63
2022/05/27 09:21:17;;;;;;;14.35;1.92;;;23.60;60.80;;;;;;5050567;28;20665;-62
2022/05/27 09:23:55;;;;;;;2.60;1.15;;;23.50;60.50;;;;;;5051169;28;20249;-63
2022/05/27 09:26:36;;;;;;;3.83;1.35;;;23.70;60.70;;;;;;5050718;28;20275;-62
2022/05/27 09:29:32;;;;;;;3.60;1.15;;;23.80;60.10;;;;;;5050544;28;20178;-64
2022/05/27 09:32:29;;;;;;;3.42;1.00;;;23.80;59.70;;;;;;5049051;28;20193;-64
2022/05/27 09:35:01;;;;;;;7.00;1.30;;;23.90;59.80;;;;;;5050427;28;20295;-64
2022/05/27 09:37:34;;;;;;;4.65;1.65;;;24.10;60.20;;;;;;5051018;28;20162;-59
2022/05/27 09:40:06;;;;;;;3.72;0.90;;;23.70;60.50;;;;;;5050563;28;20206;-65
2022/05/27 09:42:38;;;;;;;1.85;1.10;;;24.00;61.00;;;;;;5051283;28;20175;-64
2022/05/27 09:45:04;;;;;;;6.40;1.40;;;24.30;59.60;;;;;;5051068;28;20238;-61
2022/05/27 09:47:34;;;;;;;3.55;1.13;;;24.30;60.00;;;;;;5049987;28;20674;-53
2022/05/27 09:50:08;;;;;;;7.72;1.20;;;24.30;59.50;;;;;;5051043;28;20182;-63
2022/05/27 09:52:40;;;;;;;7.05;1.33;;;24.30;60.30;;;;;;5050737;28;20602;-63
2022/05/27 09:55:18;;;;;;;5.55;1.38;;;24.50;59.70;;;;;;5050789;28;20198;-62
2022/05/27 09:58:00;;;;;;;3.88;1.33;;;24.90;59.30;;;;;;5051282;28;20174;-64
2022/05/27 10:00:39;;;;;;;7.15;0.80;;;25.30;57.40;;;;;;5051338;28;20558;-66
2022/05/27 10:03:33;;;;;;;8.10;1.15;;;25.30;57.60;;;;;;5050379;28;20197;-64
2022/05/27 10:06:12;;;;;;;4.93;0.90;;;25.20;57.00;;;;;;5029864;28;20304;-63
2022/05/27 10:08:51;;;;;;;3.13;1.00;;;25.00;56.60;;;;;;5042830;28;20166;-58
2022/05/27 10:11:23;;;;;;;6.43;1.30;;;25.10;57.40;;;;;;5048303;28;20614;-59
2022/05/27 10:14:22;;;;;;;8.07;1.52;;;25.50;57.70;;;;;;5049512;28;20193;-56
2022/05/27 10:17:11;;;;;;;6.95;1.42;;;25.50;56.70;;;;;;5047753;28;20184;-55
2022/05/27 10:19:39;;;;;;;2.60;1.15;;;25.60;56.10;;;;;;5048157;28;20193;-59
2022/05/27 10:22:20;;;;;;;3.75;1.75;;;25.70;56.50;;;;;;5050340;28;20537;-64
2022/05/27 10:24:57;;;;;;;3.95;1.33;;;25.50;55.80;;;;;;5050437;28;20186;-60
2022/05/27 10:27:33;;;;;;;5.68;1.33;;;25.10;56.10;;;;;;5050032;28;20277;-61
2022/05/27 10:30:01;;;;;;;8.68;1.35;;;25.20;56.20;;;;;;5050127;28;20533;-63
2022/05/27 10:32:38;;;;;;;16.08;2.70;;;25.50;56.70;;;;;;5049198;28;20595;-63
2022/05/27 10:35:09;;;;;;;7.03;1.55;;;25.90;57.60;;;;;;5048884;28;20495;-63
2022/05/27 10:38:03;;;;;;;2.80;1.08;;;25.90;56.00;;;;;;5049261;28;20178;-63
2022/05/27 10:40:36;;;;;;;4.28;0.93;;;26.10;55.30;;;;;;5048954;28;20532;-62
2022/05/27 10:43:07;;;;;;;3.83;1.20;;;26.00;54.30;;;;;;5049766;28;20186;-69
2022/05/27 10:45:44;;;;;;;5.78;1.10;;;25.90;54.70;;;;;;5049948;28;20607;-61
2022/05/27 10:48:23;;;;;;;1.20;0.70;;;25.60;55.10;;;;;;5052164;28;20303;-63
2022/05/27 10:50:57;;;;;;;3.30;0.85;;;25.40;55.70;;;;;;5053494;28;20330;-56
2022/05/27 10:54:00;;;;;;;4.90;1.08;;;25.70;55.10;;;;;;5053394;28;20226;-62
2022/05/27 11:02:03;;;;;;;6.35;1.00;;;25.90;55.90;;;;;;5053744;28;20269;-61
2022/05/27 11:02:56;;;;;;;3.50;1.10;;;25.60;55.00;;;;;;5051795;28;20672;-61
2022/05/27 11:05:40;;;;;;;6.82;1.20;;;25.90;54.50;;;;;;5053225;28;20186;-60
2022/05/27 11:08:25;;;;;;;2.30;1.02;;;25.50;54.70;;;;;;5053597;28;20221;-61
2022/05/27 11:11:35;;;;;;;7.30;1.33;;;25.70;54.80;;;;;;5053447;28;20594;-61
2022/05/27 11:17:45;;;;;;;5.25;0.80;;;26.00;53.90;;;;;;5030194;28;21296;-55
2022/05/27 11:20:41;;;;;;;7.80;1.45;;;26.30;54.20;;;;;;5051071;28;20174;-54
2022/05/27 11:23:22;;;;;;;4.80;0.98;;;26.90;53.30;;;;;;5050366;28;20222;-55
2022/05/27 11:26:08;;;;;;;3.42;0.82;;;27.90;52.00;;;;;;5050841;28;20174;-61
2022/05/27 11:28:43;;;;;;;4.97;1.00;;;28.70;49.50;;;;;;5052299;28;20174;-62
2022/05/27 11:31:20;;;;;;;5.38;1.10;;;29.40;49.30;;;;;;5053365;28;20212;-64
2022/05/27 11:33:55;;;;;;;7.43;1.00;;;29.60;48.10;;;;;;5052532;28;20197;-59
2022/05/27 11:37:02;;;;;;;7.78;1.25;;;29.20;48.20;;;;;;5053102;28;20186;-62
2022/05/27 11:39:58;;;;;;;3.90;1.23;;;29.70;47.80;;;;;;5030891;28;20198;-61
2022/05/27 11:43:11;;;;;;;9.55;1.10;;;30.10;47.10;;;;;;5052735;28;20171;-50
2022/05/27 11:45:45;;;;;;;3.83;0.90;;;30.70;45.80;;;;;;5049956;28;20177;-60
2022/05/27 11:48:44;;;;;;;4.57;1.40;;;31.20;45.30;;;;;;5050136;28;20178;-59
2022/05/27 11:51:28;;;;;;;4.43;1.10;;;31.30;44.20;;;;;;5050427;28;20175;-60
2022/05/27 11:54:26;;;;;;;4.00;1.27;;;30.30;45.40;;;;;;5051045;28;20284;-58
2022/05/27 11:57:19;;;;;;;2.45;1.17;;;30.70;45.50;;;;;;5053115;28;20198;-60
2022/05/27 12:00:07;;;;;;;2.22;0.90;;;30.70;45.60;;;;;;5050866;28;20186;-61
2022/05/27 12:02:38;;;;;;;7.15;1.38;;;31.40;44.10;;;;;;5052605;28;20696;-59
2022/05/27 12:05:22;;;;;;;5.18;1.48;;;32.00;43.80;;;;;;5052352;28;20194;-60
2022/05/27 12:07:58;;;;;;;10.60;2.25;;;31.50;43.60;;;;;;5044163;28;20211;-60
2022/05/27 12:10:30;;;;;;;4.70;1.10;;;29.60;44.70;;;;;;5043425;28;20330;-59
2022/05/27 12:13:07;;;;;;;2.13;1.13;;;28.70;47.20;;;;;;5052097;28;20193;-66
2022/05/27 12:15:39;;;;;;;3.17;1.17;;;29.40;46.90;;;;;;5052471;28;20257;-62
2022/05/27 12:18:10;;;;;;;5.30;1.58;;;30.80;45.50;;;;;;5049933;28;20205;-61
2022/05/27 12:20:38;;;;;;;11.65;1.48;;;30.90;45.00;;;;;;5040456;28;20603;-62
2022/05/27 12:23:10;;;;;;;3.97;1.60;;;31.00;45.00;;;;;;5053692;28;20230;-63
2022/05/27 12:25:44;;;;;;;4.20;1.20;;;31.90;44.50;;;;;;5060075;28;20190;-64
2022/05/27 12:28:10;;;;;;;6.20;1.10;;;31.90;42.90;;;;;;5056698;28;20258;-59
2022/05/27 12:30:40;;;;;;;12.07;1.35;;;32.60;43.40;;;;;;5065297;28;20653;-63
2022/05/27 12:33:11;;;;;;;18.38;1.58;;;32.60;42.10;;;;;;5059088;28;20202;-64
2022/05/27 12:35:37;;;;;;;8.93;1.95;;;33.00;41.90;;;;;;5057675;28;20217;-62
2022/05/27 12:38:16;;;;;;;2.28;0.90;;;32.80;42.00;;;;;;5068575;28;20236;-69
2022/05/27 12:40:55;;;;;;;13.10;1.90;;;32.70;42.50;;;;;;5071882;28;20185;-60
2022/05/27 12:43:30;;;;;;;5.10;1.45;;;33.40;41.50;;;;;;5071156;28;20260;-60
2022/05/27 12:46:02;;;;;;;8.10;1.65;;;34.40;41.10;;;;;;5071393;28;20291;-60
2022/05/27 12:48:34;;;;;;;8.52;1.20;;;34.30;40.20;;;;;;5069439;28;20201;-60
2022/05/27 12:51:15;;;;;;;8.23;1.60;;;33.00;41.70;;;;;;5070829;28;20186;-59
2022/05/27 12:53:58;;;;;;;3.42;0.82;;;31.90;42.70;;;;;;5042426;28;20194;-57
2022/05/27 13:02:17;;;;;;;5.85;1.40;;;31.70;43.50;;;;;;5059539;28;20272;-61
2022/05/27 13:04:54;;;;;;;17.98;1.75;;;31.60;43.60;;;;;;5056474;28;20199;-63
2022/05/27 13:07:41;;;;;;;3.13;1.10;;;33.20;42.40;;;;;;5070527;28;20201;-59
2022/05/27 13:10:16;;;;;;;4.88;1.23;;;33.60;41.40;;;;;;5043480;28;20188;-59
2022/05/27 13:12:42;;;;;;;8.40;1.25;;;33.10;41.40;;;;;;5050002;28;20204;-60
2022/05/27 13:15:31;;;;;;;6.50;1.30;;;34.20;41.00;;;;;;5064146;28;20189;-63
2022/05/27 13:18:28;;;;;;;3.08;0.90;;;34.70;39.90;;;;;;5067261;28;20201;-58
2022/05/27 13:21:33;;;;;;;9.52;1.52;;;35.30;39.10;;;;;;5069954;28;20190;-59
2022/05/27 13:24:02;;;;;;;5.90;1.35;;;35.70;38.40;;;;;;5062758;28;20233;-71
2022/05/27 13:26:32;;;;;;;6.93;1.90;;;35.10;38.40;;;;;;5069440;28;20212;-60
2022/05/27 13:28:58;;;;;;;5.55;1.05;;;34.20;39.50;;;;;;5057104;28;20205;-61
2022/05/27 13:31:41;;;;;;;2.67;1.00;;;34.20;40.10;;;;;;5056388;28;20668;-60
2022/05/27 13:34:13;;;;;;;3.83;1.05;;;34.50;39.10;;;;;;5056208;28;20194;-60
2022/05/27 13:36:57;;;;;;;3.03;1.27;;;34.10;39.50;;;;;;5070428;28;20204;-62
2022/05/27 13:39:32;;;;;;;9.20;1.73;;;34.60;38.40;;;;;;5068901;28;20594;-60
2022/05/27 13:41:57;;;;;;;4.53;1.20;;;34.00;38.30;;;;;;5057174;28;20515;-60
2022/05/27 13:44:24;;;;;;;3.47;1.40;;;34.30;39.00;;;;;;5069232;28;20349;-61
2022/05/27 13:46:57;;;;;;;6.50;1.25;;;33.80;39.90;;;;;;5070708;28;20239;-58
2022/05/27 13:49:37;;;;;;;3.80;1.02;;;34.80;39.80;;;;;;5071045;28;20185;-59